Terminal Aerodrome Forecast
Issued by NWS

Home | Current Version | Previous Version | Text Only | Print | Product List | Glossary On
Versions: 1 2 3 4 5 6 7 8 9 10 11 12 13
000
FTUS42 KGSP 261120
TAFGMU
TAF
KGMU 261120Z 2612/2712 23003KT P6SM SCT070
     FM261500 24008KT P6SM SCT060
     FM261900 23008KT P6SM BKN060 PROB30 2621/2701 4SM -TSRA
      OVC025CB
     FM270200 19003KT P6SM BKN060=

USA.gov is the U.S. government's official web portal to all federal, state and local government web resources and services.